sensor_id;sensor_type;location;lat;lon;timestamp;P1;durP1;ratioP1;P2;durP2;ratioP2
6376;SDS011;3221;48.858;10.128;2023-05-29T00:02:14;5.27;;;3.80;;
6376;SDS011;3221;48.858;10.128;2023-05-29T00:04:41;5.20;;;3.97;;
6376;SDS011;3221;48.858;10.128;2023-05-29T00:07:08;5.00;;;4.07;;
6376;SDS011;3221;48.858;10.128;2023-05-29T00:09:35;5.23;;;3.60;;
6376;SDS011;3221;48.858;10.128;2023-05-29T00:12:02;5.37;;;3.90;;
6376;SDS011;3221;48.858;10.128;2023-05-29T00:14:29;8.43;;;4.47;;
6376;SDS011;3221;48.858;10.128;2023-05-29T00:16:56;9.20;;;3.87;;
6376;SDS011;3221;48.858;10.128;2023-05-29T00:19:23;6.13;;;4.07;;
6376;SDS011;3221;48.858;10.128;2023-05-29T00:21:51;7.07;;;4.00;;
6376;SDS011;3221;48.858;10.128;2023-05-29T00:24:18;5.20;;;3.70;;
6376;SDS011;3221;48.858;10.128;2023-05-29T00:26:46;6.53;;;4.40;;
6376;SDS011;3221;48.858;10.128;2023-05-29T00:29:13;5.83;;;4.30;;
6376;SDS011;3221;48.858;10.128;2023-05-29T00:31:40;5.97;;;3.93;;
6376;SDS011;3221;48.858;10.128;2023-05-29T00:34:07;5.20;;;4.10;;
6376;SDS011;3221;48.858;10.128;2023-05-29T00:36:34;6.33;;;4.20;;
6376;SDS011;3221;48.858;10.128;2023-05-29T00:39:03;8.30;;;4.40;;
6376;SDS011;3221;48.858;10.128;2023-05-29T00:41:30;5.63;;;4.10;;
6376;SDS011;3221;48.858;10.128;2023-05-29T00:43:57;7.40;;;4.03;;
6376;SDS011;3221;48.858;10.128;2023-05-29T00:46:24;6.03;;;4.07;;
6376;SDS011;3221;48.858;10.128;2023-05-29T00:48:52;7.60;;;4.10;;
6376;SDS011;3221;48.858;10.128;2023-05-29T00:51:20;5.33;;;3.53;;
6376;SDS011;3221;48.858;10.128;2023-05-29T00:53:47;5.80;;;4.07;;
6376;SDS011;3221;48.858;10.128;2023-05-29T00:56:14;5.67;;;4.27;;
6376;SDS011;3221;48.858;10.128;2023-05-29T00:58:42;4.80;;;3.70;;
6376;SDS011;3221;48.858;10.128;2023-05-29T01:01:10;5.83;;;4.13;;
6376;SDS011;3221;48.858;10.128;2023-05-29T01:03:38;6.93;;;3.93;;
6376;SDS011;3221;48.858;10.128;2023-05-29T01:06:06;4.53;;;3.70;;
6376;SDS011;3221;48.858;10.128;2023-05-29T01:08:33;5.20;;;3.80;;
6376;SDS011;3221;48.858;10.128;2023-05-29T01:11:04;6.63;;;4.27;;
6376;SDS011;3221;48.858;10.128;2023-05-29T01:13:41;7.50;;;3.93;;
6376;SDS011;3221;48.858;10.128;2023-05-29T01:16:12;9.23;;;4.03;;
6376;SDS011;3221;48.858;10.128;2023-05-29T01:18:51;5.53;;;3.97;;
6376;SDS011;3221;48.858;10.128;2023-05-29T01:21:54;7.67;;;4.47;;
6376;SDS011;3221;48.858;10.128;2023-05-29T01:27:03;6.30;;;4.13;;
6376;SDS011;3221;48.858;10.128;2023-05-29T01:29:34;7.30;;;4.50;;
6376;SDS011;3221;48.858;10.128;2023-05-29T01:32:01;6.27;;;3.73;;
6376;SDS011;3221;48.858;10.128;2023-05-29T01:34:29;5.37;;;4.00;;
6376;SDS011;3221;48.858;10.128;2023-05-29T01:36:56;9.30;;;4.20;;
6376;SDS011;3221;48.858;10.128;2023-05-29T01:39:23;5.07;;;4.07;;
6376;SDS011;3221;48.858;10.128;2023-05-29T01:41:52;7.83;;;4.03;;
6376;SDS011;3221;48.858;10.128;2023-05-29T01:44:20;5.37;;;3.90;;
6376;SDS011;3221;48.858;10.128;2023-05-29T01:46:47;5.60;;;4.37;;
6376;SDS011;3221;48.858;10.128;2023-05-29T01:49:15;6.60;;;4.40;;
6376;SDS011;3221;48.858;10.128;2023-05-29T01:51:43;7.93;;;4.30;;
6376;SDS011;3221;48.858;10.128;2023-05-29T01:54:10;9.93;;;4.07;;
6376;SDS011;3221;48.858;10.128;2023-05-29T01:56:37;5.77;;;3.90;;
6376;SDS011;3221;48.858;10.128;2023-05-29T01:59:05;6.87;;;4.00;;
6376;SDS011;3221;48.858;10.128;2023-05-29T02:01:32;7.93;;;4.00;;
6376;SDS011;3221;48.858;10.128;2023-05-29T02:04:00;6.73;;;4.40;;
6376;SDS011;3221;48.858;10.128;2023-05-29T02:06:27;4.27;;;3.63;;
6376;SDS011;3221;48.858;10.128;2023-05-29T02:08:54;6.07;;;4.30;;
6376;SDS011;3221;48.858;10.128;2023-05-29T02:11:21;7.90;;;4.70;;
6376;SDS011;3221;48.858;10.128;2023-05-29T02:13:48;6.07;;;4.27;;
6376;SDS011;3221;48.858;10.128;2023-05-29T02:16:16;8.23;;;4.67;;
6376;SDS011;3221;48.858;10.128;2023-05-29T02:18:43;8.53;;;4.70;;
6376;SDS011;3221;48.858;10.128;2023-05-29T02:21:11;7.17;;;4.83;;
6376;SDS011;3221;48.858;10.128;2023-05-29T02:23:38;9.27;;;4.97;;
6376;SDS011;3221;48.858;10.128;2023-05-29T02:26:05;8.20;;;4.80;;
6376;SDS011;3221;48.858;10.128;2023-05-29T02:28:32;9.13;;;4.70;;
6376;SDS011;3221;48.858;10.128;2023-05-29T02:30:59;8.03;;;4.90;;
6376;SDS011;3221;48.858;10.128;2023-05-29T02:33:26;7.60;;;4.33;;
6376;SDS011;3221;48.858;10.128;2023-05-29T02:35:53;6.57;;;4.53;;
6376;SDS011;3221;48.858;10.128;2023-05-29T02:38:20;7.83;;;4.93;;
6376;SDS011;3221;48.858;10.128;2023-05-29T02:40:47;6.27;;;4.47;;
6376;SDS011;3221;48.858;10.128;2023-05-29T02:43:14;6.30;;;5.00;;
6376;SDS011;3221;48.858;10.128;2023-05-29T02:45:41;8.07;;;4.50;;
6376;SDS011;3221;48.858;10.128;2023-05-29T02:48:08;6.80;;;4.80;;
6376;SDS011;3221;48.858;10.128;2023-05-29T02:50:36;6.47;;;4.23;;
6376;SDS011;3221;48.858;10.128;2023-05-29T02:53:03;6.93;;;4.43;;
6376;SDS011;3221;48.858;10.128;2023-05-29T02:55:30;6.03;;;4.33;;
6376;SDS011;3221;48.858;10.128;2023-05-29T02:57:58;7.43;;;4.60;;
6376;SDS011;3221;48.858;10.128;2023-05-29T03:00:27;7.47;;;4.40;;
6376;SDS011;3221;48.858;10.128;2023-05-29T03:02:57;5.63;;;4.20;;
6376;SDS011;3221;48.858;10.128;2023-05-29T03:05:24;6.70;;;4.20;;
6376;SDS011;3221;48.858;10.128;2023-05-29T03:07:52;6.80;;;4.10;;
6376;SDS011;3221;48.858;10.128;2023-05-29T03:10:19;6.40;;;4.17;;
6376;SDS011;3221;48.858;10.128;2023-05-29T03:12:47;7.57;;;4.80;;
6376;SDS011;3221;48.858;10.128;2023-05-29T03:15:14;8.17;;;4.43;;
6376;SDS011;3221;48.858;10.128;2023-05-29T03:17:41;5.67;;;4.13;;
6376;SDS011;3221;48.858;10.128;2023-05-29T03:20:12;7.50;;;4.60;;
6376;SDS011;3221;48.858;10.128;2023-05-29T03:22:43;6.23;;;4.30;;
6376;SDS011;3221;48.858;10.128;2023-05-29T03:25:10;6.50;;;4.40;;
6376;SDS011;3221;48.858;10.128;2023-05-29T03:27:37;6.83;;;4.17;;
6376;SDS011;3221;48.858;10.128;2023-05-29T03:30:09;5.30;;;4.20;;
6376;SDS011;3221;48.858;10.128;2023-05-29T03:32:38;5.37;;;3.97;;
6376;SDS011;3221;48.858;10.128;2023-05-29T03:35:05;6.03;;;4.10;;
6376;SDS011;3221;48.858;10.128;2023-05-29T03:37:33;5.60;;;3.97;;
6376;SDS011;3221;48.858;10.128;2023-05-29T03:40:00;8.43;;;4.10;;
6376;SDS011;3221;48.858;10.128;2023-05-29T03:42:27;6.97;;;4.47;;
6376;SDS011;3221;48.858;10.128;2023-05-29T03:44:57;5.57;;;3.90;;
6376;SDS011;3221;48.858;10.128;2023-05-29T03:47:24;6.50;;;4.17;;
6376;SDS011;3221;48.858;10.128;2023-05-29T03:49:52;6.43;;;3.97;;
6376;SDS011;3221;48.858;10.128;2023-05-29T03:52:19;5.10;;;3.77;;
6376;SDS011;3221;48.858;10.128;2023-05-29T03:54:46;5.97;;;4.07;;
6376;SDS011;3221;48.858;10.128;2023-05-29T03:57:13;6.93;;;4.13;;
6376;SDS011;3221;48.858;10.128;2023-05-29T03:59:42;6.80;;;4.43;;
6376;SDS011;3221;48.858;10.128;2023-05-29T04:02:09;6.13;;;4.10;;
6376;SDS011;3221;48.858;10.128;2023-05-29T04:04:40;6.27;;;4.03;;
6376;SDS011;3221;48.858;10.128;2023-05-29T04:07:06;5.60;;;3.87;;
6376;SDS011;3221;48.858;10.128;2023-05-29T04:09:33;5.97;;;3.80;;
6376;SDS011;3221;48.858;10.128;2023-05-29T04:12:00;5.63;;;4.07;;
6376;SDS011;3221;48.858;10.128;2023-05-29T04:14:32;6.03;;;4.00;;
6376;SDS011;3221;48.858;10.128;2023-05-29T04:16:59;7.83;;;4.00;;
6376;SDS011;3221;48.858;10.128;2023-05-29T04:19:26;5.93;;;4.20;;
6376;SDS011;3221;48.858;10.128;2023-05-29T04:21:53;8.77;;;4.20;;
6376;SDS011;3221;48.858;10.128;2023-05-29T04:24:20;6.67;;;4.00;;
6376;SDS011;3221;48.858;10.128;2023-05-29T04:26:47;5.97;;;3.80;;
6376;SDS011;3221;48.858;10.128;2023-05-29T04:29:14;6.40;;;3.90;;
6376;SDS011;3221;48.858;10.128;2023-05-29T04:31:44;7.23;;;4.90;;
6376;SDS011;3221;48.858;10.128;2023-05-29T04:34:11;4.77;;;3.80;;
6376;SDS011;3221;48.858;10.128;2023-05-29T04:36:38;17.93;;;4.80;;
6376;SDS011;3221;48.858;10.128;2023-05-29T04:39:10;8.57;;;4.63;;
6376;SDS011;3221;48.858;10.128;2023-05-29T04:41:39;7.27;;;4.33;;
6376;SDS011;3221;48.858;10.128;2023-05-29T04:44:10;8.23;;;4.07;;
6376;SDS011;3221;48.858;10.128;2023-05-29T04:46:43;6.57;;;4.00;;
6376;SDS011;3221;48.858;10.128;2023-05-29T04:49:11;7.77;;;4.13;;
6376;SDS011;3221;48.858;10.128;2023-05-29T04:51:39;6.60;;;4.30;;
6376;SDS011;3221;48.858;10.128;2023-05-29T04:54:07;6.03;;;3.90;;
6376;SDS011;3221;48.858;10.128;2023-05-29T04:56:36;6.30;;;4.00;;
6376;SDS011;3221;48.858;10.128;2023-05-29T04:59:04;8.00;;;4.90;;
6376;SDS011;3221;48.858;10.128;2023-05-29T05:01:31;6.37;;;4.10;;
6376;SDS011;3221;48.858;10.128;2023-05-29T05:04:00;6.50;;;4.07;;
6376;SDS011;3221;48.858;10.128;2023-05-29T05:06:28;9.87;;;4.90;;
6376;SDS011;3221;48.858;10.128;2023-05-29T05:08:55;9.60;;;4.63;;
6376;SDS011;3221;48.858;10.128;2023-05-29T05:11:22;6.20;;;4.20;;
6376;SDS011;3221;48.858;10.128;2023-05-29T05:13:50;7.53;;;4.37;;
6376;SDS011;3221;48.858;10.128;2023-05-29T05:16:17;6.53;;;4.53;;
6376;SDS011;3221;48.858;10.128;2023-05-29T05:18:44;8.30;;;4.90;;
6376;SDS011;3221;48.858;10.128;2023-05-29T05:21:12;8.30;;;4.60;;
6376;SDS011;3221;48.858;10.128;2023-05-29T05:23:39;7.30;;;5.07;;
6376;SDS011;3221;48.858;10.128;2023-05-29T05:26:24;6.50;;;4.37;;
6376;SDS011;3221;48.858;10.128;2023-05-29T05:28:54;7.53;;;4.57;;
6376;SDS011;3221;48.858;10.128;2023-05-29T05:31:24;7.03;;;4.40;;
6376;SDS011;3221;48.858;10.128;2023-05-29T05:33:52;9.53;;;5.17;;
6376;SDS011;3221;48.858;10.128;2023-05-29T05:36:19;7.33;;;4.40;;
6376;SDS011;3221;48.858;10.128;2023-05-29T05:38:51;5.77;;;4.00;;
6376;SDS011;3221;48.858;10.128;2023-05-29T05:41:18;6.67;;;4.30;;
6376;SDS011;3221;48.858;10.128;2023-05-29T05:43:47;6.37;;;4.33;;
6376;SDS011;3221;48.858;10.128;2023-05-29T05:46:25;5.97;;;4.47;;
6376;SDS011;3221;48.858;10.128;2023-05-29T05:48:53;7.27;;;4.67;;
6376;SDS011;3221;48.858;10.128;2023-05-29T05:51:23;7.13;;;4.40;;
6376;SDS011;3221;48.858;10.128;2023-05-29T05:53:51;6.77;;;4.20;;
6376;SDS011;3221;48.858;10.128;2023-05-29T05:56:18;6.77;;;4.40;;
6376;SDS011;3221;48.858;10.128;2023-05-29T05:58:45;7.83;;;4.90;;
6376;SDS011;3221;48.858;10.128;2023-05-29T06:01:16;5.67;;;4.27;;
6376;SDS011;3221;48.858;10.128;2023-05-29T06:03:44;7.17;;;4.30;;
6376;SDS011;3221;48.858;10.128;2023-05-29T06:06:11;7.47;;;4.70;;
6376;SDS011;3221;48.858;10.128;2023-05-29T06:08:41;7.27;;;4.40;;
6376;SDS011;3221;48.858;10.128;2023-05-29T06:11:09;6.93;;;4.17;;
6376;SDS011;3221;48.858;10.128;2023-05-29T06:13:38;7.83;;;4.70;;
6376;SDS011;3221;48.858;10.128;2023-05-29T06:16:14;6.67;;;4.40;;
6376;SDS011;3221;48.858;10.128;2023-05-29T06:18:42;7.90;;;4.50;;
6376;SDS011;3221;48.858;10.128;2023-05-29T06:21:09;6.10;;;4.37;;
6376;SDS011;3221;48.858;10.128;2023-05-29T06:23:43;8.37;;;4.93;;
6376;SDS011;3221;48.858;10.128;2023-05-29T06:26:11;6.90;;;4.83;;
6376;SDS011;3221;48.858;10.128;2023-05-29T06:28:38;5.70;;;4.57;;
6376;SDS011;3221;48.858;10.128;2023-05-29T06:31:07;7.37;;;4.83;;
6376;SDS011;3221;48.858;10.128;2023-05-29T06:33:34;5.67;;;4.43;;
6376;SDS011;3221;48.858;10.128;2023-05-29T06:36:01;5.77;;;4.30;;
6376;SDS011;3221;48.858;10.128;2023-05-29T06:38:29;6.27;;;4.87;;
6376;SDS011;3221;48.858;10.128;2023-05-29T06:40:57;7.17;;;4.13;;
6376;SDS011;3221;48.858;10.128;2023-05-29T06:43:24;6.03;;;4.47;;
6376;SDS011;3221;48.858;10.128;2023-05-29T06:45:55;5.77;;;4.37;;
6376;SDS011;3221;48.858;10.128;2023-05-29T06:48:23;8.20;;;4.60;;
6376;SDS011;3221;48.858;10.128;2023-05-29T06:50:50;7.80;;;4.80;;
6376;SDS011;3221;48.858;10.128;2023-05-29T06:53:43;6.97;;;4.50;;
6376;SDS011;3221;48.858;10.128;2023-05-29T06:56:12;6.70;;;4.17;;
6376;SDS011;3221;48.858;10.128;2023-05-29T06:58:39;6.53;;;4.70;;
6376;SDS011;3221;48.858;10.128;2023-05-29T07:01:06;6.27;;;4.40;;
6376;SDS011;3221;48.858;10.128;2023-05-29T07:03:36;5.93;;;4.40;;
6376;SDS011;3221;48.858;10.128;2023-05-29T07:06:04;9.10;;;4.47;;
6376;SDS011;3221;48.858;10.128;2023-05-29T07:08:31;7.13;;;4.20;;
6376;SDS011;3221;48.858;10.128;2023-05-29T07:11:01;7.27;;;4.13;;
6376;SDS011;3221;48.858;10.128;2023-05-29T07:13:28;6.33;;;4.03;;
6376;SDS011;3221;48.858;10.128;2023-05-29T07:15:56;5.93;;;4.10;;
6376;SDS011;3221;48.858;10.128;2023-05-29T07:18:29;6.67;;;3.93;;
6376;SDS011;3221;48.858;10.128;2023-05-29T07:20:59;5.83;;;4.17;;
6376;SDS011;3221;48.858;10.128;2023-05-29T07:23:29;5.00;;;4.03;;
6376;SDS011;3221;48.858;10.128;2023-05-29T07:25:57;6.57;;;4.00;;
6376;SDS011;3221;48.858;10.128;2023-05-29T07:28:27;6.10;;;4.17;;
6376;SDS011;3221;48.858;10.128;2023-05-29T07:30:54;6.80;;;4.33;;
6376;SDS011;3221;48.858;10.128;2023-05-29T07:33:23;6.37;;;4.37;;
6376;SDS011;3221;48.858;10.128;2023-05-29T07:35:53;5.13;;;3.90;;
6376;SDS011;3221;48.858;10.128;2023-05-29T07:38:20;6.20;;;3.97;;
6376;SDS011;3221;48.858;10.128;2023-05-29T07:40:48;6.10;;;4.17;;
6376;SDS011;3221;48.858;10.128;2023-05-29T07:43:28;6.07;;;3.97;;
6376;SDS011;3221;48.858;10.128;2023-05-29T07:45:59;7.40;;;4.23;;
6376;SDS011;3221;48.858;10.128;2023-05-29T07:48:26;5.20;;;4.07;;
6376;SDS011;3221;48.858;10.128;2023-05-29T07:50:55;6.57;;;3.80;;
6376;SDS011;3221;48.858;10.128;2023-05-29T07:53:23;5.40;;;3.70;;
6376;SDS011;3221;48.858;10.128;2023-05-29T07:55:58;6.20;;;4.23;;
6376;SDS011;3221;48.858;10.128;2023-05-29T07:58:25;7.30;;;4.40;;
6376;SDS011;3221;48.858;10.128;2023-05-29T08:00:52;7.87;;;4.47;;
6376;SDS011;3221;48.858;10.128;2023-05-29T08:03:20;8.83;;;4.37;;
6376;SDS011;3221;48.858;10.128;2023-05-29T08:06:10;7.00;;;4.33;;
6376;SDS011;3221;48.858;10.128;2023-05-29T08:08:38;6.83;;;4.23;;
6376;SDS011;3221;48.858;10.128;2023-05-29T08:11:05;4.77;;;4.00;;
6376;SDS011;3221;48.858;10.128;2023-05-29T08:13:33;6.50;;;4.20;;
6376;SDS011;3221;48.858;10.128;2023-05-29T08:16:00;6.57;;;4.07;;
6376;SDS011;3221;48.858;10.128;2023-05-29T08:18:27;5.80;;;3.97;;
6376;SDS011;3221;48.858;10.128;2023-05-29T08:20:57;5.37;;;4.17;;
6376;SDS011;3221;48.858;10.128;2023-05-29T08:23:24;6.37;;;4.03;;
6376;SDS011;3221;48.858;10.128;2023-05-29T08:25:51;5.70;;;3.60;;
6376;SDS011;3221;48.858;10.128;2023-05-29T08:28:19;5.83;;;3.87;;
6376;SDS011;3221;48.858;10.128;2023-05-29T08:30:47;6.70;;;3.97;;
6376;SDS011;3221;48.858;10.128;2023-05-29T08:33:14;5.67;;;3.83;;
6376;SDS011;3221;48.858;10.128;2023-05-29T08:35:42;5.63;;;3.73;;
6376;SDS011;3221;48.858;10.128;2023-05-29T08:38:09;5.00;;;3.80;;
6376;SDS011;3221;48.858;10.128;2023-05-29T08:40:36;6.13;;;3.60;;
6376;SDS011;3221;48.858;10.128;2023-05-29T08:43:08;6.13;;;3.60;;
6376;SDS011;3221;48.858;10.128;2023-05-29T08:45:38;4.97;;;3.83;;
6376;SDS011;3221;48.858;10.128;2023-05-29T08:48:12;5.73;;;3.47;;
6376;SDS011;3221;48.858;10.128;2023-05-29T08:50:43;5.17;;;3.60;;
6376;SDS011;3221;48.858;10.128;2023-05-29T08:53:14;4.47;;;3.47;;
6376;SDS011;3221;48.858;10.128;2023-05-29T08:55:41;4.80;;;3.80;;
6376;SDS011;3221;48.858;10.128;2023-05-29T08:58:09;4.97;;;3.40;;
6376;SDS011;3221;48.858;10.128;2023-05-29T09:00:37;6.57;;;3.60;;
6376;SDS011;3221;48.858;10.128;2023-05-29T09:03:07;7.30;;;3.90;;
6376;SDS011;3221;48.858;10.128;2023-05-29T09:05:34;5.80;;;3.50;;
6376;SDS011;3221;48.858;10.128;2023-05-29T09:08:06;5.90;;;3.30;;
6376;SDS011;3221;48.858;10.128;2023-05-29T09:10:35;4.53;;;3.43;;
6376;SDS011;3221;48.858;10.128;2023-05-29T09:13:04;5.23;;;3.53;;
6376;SDS011;3221;48.858;10.128;2023-05-29T09:15:31;4.87;;;3.40;;
6376;SDS011;3221;48.858;10.128;2023-05-29T09:17:59;6.93;;;3.47;;
6376;SDS011;3221;48.858;10.128;2023-05-29T09:20:26;4.93;;;3.50;;
6376;SDS011;3221;48.858;10.128;2023-05-29T09:23:01;6.77;;;3.87;;
6376;SDS011;3221;48.858;10.128;2023-05-29T09:25:31;4.77;;;3.40;;
6376;SDS011;3221;48.858;10.128;2023-05-29T09:28:00;6.10;;;3.50;;
6376;SDS011;3221;48.858;10.128;2023-05-29T09:33:03;3.83;;;3.20;;
6376;SDS011;3221;48.858;10.128;2023-05-29T09:35:35;4.83;;;3.97;;
6376;SDS011;3221;48.858;10.128;2023-05-29T09:38:10;6.33;;;3.70;;
6376;SDS011;3221;48.858;10.128;2023-05-29T09:40:54;8.60;;;3.83;;
6376;SDS011;3221;48.858;10.128;2023-05-29T09:43:25;5.47;;;3.57;;
6376;SDS011;3221;48.858;10.128;2023-05-29T09:45:52;6.03;;;3.93;;
6376;SDS011;3221;48.858;10.128;2023-05-29T09:48:22;5.73;;;3.60;;
6376;SDS011;3221;48.858;10.128;2023-05-29T09:50:50;7.77;;;3.57;;
6376;SDS011;3221;48.858;10.128;2023-05-29T09:55:47;5.93;;;3.90;;
6376;SDS011;3221;48.858;10.128;2023-05-29T09:58:15;5.13;;;3.80;;
6376;SDS011;3221;48.858;10.128;2023-05-29T10:00:43;5.97;;;3.70;;
6376;SDS011;3221;48.858;10.128;2023-05-29T10:03:11;6.03;;;3.80;;
6376;SDS011;3221;48.858;10.128;2023-05-29T10:05:41;5.40;;;3.23;;
6376;SDS011;3221;48.858;10.128;2023-05-29T10:08:13;4.93;;;3.40;;
6376;SDS011;3221;48.858;10.128;2023-05-29T10:10:45;4.63;;;3.77;;
6376;SDS011;3221;48.858;10.128;2023-05-29T10:13:15;6.00;;;3.40;;
6376;SDS011;3221;48.858;10.128;2023-05-29T10:15:45;5.17;;;3.60;;
6376;SDS011;3221;48.858;10.128;2023-05-29T10:18:31;6.00;;;3.60;;
6376;SDS011;3221;48.858;10.128;2023-05-29T10:21:01;4.57;;;3.87;;
6376;SDS011;3221;48.858;10.128;2023-05-29T10:23:29;5.63;;;3.60;;
6376;SDS011;3221;48.858;10.128;2023-05-29T10:26:12;5.70;;;3.53;;
6376;SDS011;3221;48.858;10.128;2023-05-29T10:28:46;4.80;;;3.60;;
6376;SDS011;3221;48.858;10.128;2023-05-29T10:31:28;3.90;;;3.50;;
6376;SDS011;3221;48.858;10.128;2023-05-29T10:37:32;5.13;;;3.70;;
6376;SDS011;3221;48.858;10.128;2023-05-29T10:40:06;4.73;;;3.37;;
6376;SDS011;3221;48.858;10.128;2023-05-29T10:48:35;7.23;;;4.00;;
6376;SDS011;3221;48.858;10.128;2023-05-29T10:50:55;3.90;;;3.37;;
6376;SDS011;3221;48.858;10.128;2023-05-29T10:53:23;6.57;;;3.70;;
6376;SDS011;3221;48.858;10.128;2023-05-29T10:55:52;4.10;;;3.40;;
6376;SDS011;3221;48.858;10.128;2023-05-29T10:58:21;4.57;;;3.70;;
6376;SDS011;3221;48.858;10.128;2023-05-29T11:00:52;5.27;;;3.43;;
6376;SDS011;3221;48.858;10.128;2023-05-29T11:03:22;4.90;;;3.57;;
6376;SDS011;3221;48.858;10.128;2023-05-29T11:05:58;3.70;;;3.30;;
6376;SDS011;3221;48.858;10.128;2023-05-29T11:08:35;7.70;;;3.60;;
6376;SDS011;3221;48.858;10.128;2023-05-29T11:11:08;4.90;;;3.73;;
6376;SDS011;3221;48.858;10.128;2023-05-29T11:14:00;4.10;;;3.70;;
6376;SDS011;3221;48.858;10.128;2023-05-29T11:19:05;5.33;;;3.10;;
6376;SDS011;3221;48.858;10.128;2023-05-29T11:28:13;4.13;;;3.50;;
6376;SDS011;3221;48.858;10.128;2023-05-29T11:30:40;7.20;;;4.00;;
6376;SDS011;3221;48.858;10.128;2023-05-29T11:33:09;5.13;;;3.90;;
6376;SDS011;3221;48.858;10.128;2023-05-29T11:35:44;4.27;;;3.47;;
6376;SDS011;3221;48.858;10.128;2023-05-29T11:38:12;4.47;;;4.03;;
6376;SDS011;3221;48.858;10.128;2023-05-29T11:40:41;5.83;;;3.97;;
6376;SDS011;3221;48.858;10.128;2023-05-29T11:43:08;4.53;;;3.57;;
6376;SDS011;3221;48.858;10.128;2023-05-29T11:45:38;4.80;;;3.30;;
6376;SDS011;3221;48.858;10.128;2023-05-29T11:48:06;4.90;;;3.93;;
6376;SDS011;3221;48.858;10.128;2023-05-29T11:50:33;5.83;;;3.50;;
6376;SDS011;3221;48.858;10.128;2023-05-29T11:53:00;3.93;;;3.50;;
6376;SDS011;3221;48.858;10.128;2023-05-29T11:55:27;4.63;;;3.63;;
6376;SDS011;3221;48.858;10.128;2023-05-29T11:57:58;5.73;;;3.93;;
6376;SDS011;3221;48.858;10.128;2023-05-29T12:00:30;5.50;;;3.83;;
6376;SDS011;3221;48.858;10.128;2023-05-29T12:03:01;5.30;;;3.87;;
6376;SDS011;3221;48.858;10.128;2023-05-29T12:05:33;3.93;;;3.53;;
6376;SDS011;3221;48.858;10.128;2023-05-29T12:08:11;4.70;;;3.63;;
6376;SDS011;3221;48.858;10.128;2023-05-29T12:10:45;4.27;;;3.53;;
6376;SDS011;3221;48.858;10.128;2023-05-29T12:13:18;5.23;;;3.80;;
6376;SDS011;3221;48.858;10.128;2023-05-29T12:15:45;5.10;;;3.57;;
6376;SDS011;3221;48.858;10.128;2023-05-29T12:18:14;4.83;;;3.50;;
6376;SDS011;3221;48.858;10.128;2023-05-29T12:20:41;4.17;;;3.40;;
6376;SDS011;3221;48.858;10.128;2023-05-29T12:23:09;4.13;;;3.53;;
6376;SDS011;3221;48.858;10.128;2023-05-29T12:25:35;6.40;;;3.80;;
6376;SDS011;3221;48.858;10.128;2023-05-29T12:28:05;5.40;;;3.40;;
6376;SDS011;3221;48.858;10.128;2023-05-29T12:30:36;5.10;;;3.33;;
6376;SDS011;3221;48.858;10.128;2023-05-29T12:33:07;5.37;;;3.43;;
6376;SDS011;3221;48.858;10.128;2023-05-29T12:35:34;6.17;;;3.80;;
6376;SDS011;3221;48.858;10.128;2023-05-29T12:38:02;3.90;;;3.20;;
6376;SDS011;3221;48.858;10.128;2023-05-29T12:40:32;4.83;;;3.60;;
6376;SDS011;3221;48.858;10.128;2023-05-29T12:43:06;5.43;;;3.07;;
6376;SDS011;3221;48.858;10.128;2023-05-29T12:45:35;4.77;;;3.43;;
6376;SDS011;3221;48.858;10.128;2023-05-29T12:48:03;4.77;;;3.57;;
6376;SDS011;3221;48.858;10.128;2023-05-29T12:50:33;4.77;;;3.20;;
6376;SDS011;3221;48.858;10.128;2023-05-29T12:53:11;6.27;;;3.73;;
6376;SDS011;3221;48.858;10.128;2023-05-29T12:55:41;4.50;;;3.63;;
6376;SDS011;3221;48.858;10.128;2023-05-29T12:58:12;6.37;;;3.63;;
6376;SDS011;3221;48.858;10.128;2023-05-29T13:00:41;5.63;;;3.53;;
6376;SDS011;3221;48.858;10.128;2023-05-29T13:03:09;4.47;;;3.50;;
6376;SDS011;3221;48.858;10.128;2023-05-29T13:05:39;4.83;;;3.50;;
6376;SDS011;3221;48.858;10.128;2023-05-29T13:08:06;3.23;;;2.93;;
6376;SDS011;3221;48.858;10.128;2023-05-29T13:10:34;3.70;;;3.30;;
6376;SDS011;3221;48.858;10.128;2023-05-29T13:13:01;5.03;;;3.63;;
6376;SDS011;3221;48.858;10.128;2023-05-29T13:15:29;5.87;;;3.40;;
6376;SDS011;3221;48.858;10.128;2023-05-29T13:17:59;5.97;;;3.23;;
6376;SDS011;3221;48.858;10.128;2023-05-29T13:20:26;5.28;;;3.65;;
6376;SDS011;3221;48.858;10.128;2023-05-29T13:22:53;5.07;;;3.60;;
6376;SDS011;3221;48.858;10.128;2023-05-29T13:25:20;4.97;;;3.08;;
6376;SDS011;3221;48.858;10.128;2023-05-29T13:27:50;5.93;;;3.40;;
6376;SDS011;3221;48.858;10.128;2023-05-29T13:30:18;3.80;;;3.40;;
6376;SDS011;3221;48.858;10.128;2023-05-29T13:32:45;6.57;;;3.10;;
6376;SDS011;3221;48.858;10.128;2023-05-29T13:35:12;4.57;;;3.10;;
6376;SDS011;3221;48.858;10.128;2023-05-29T13:37:39;4.57;;;3.60;;
6376;SDS011;3221;48.858;10.128;2023-05-29T13:40:06;4.13;;;3.50;;
6376;SDS011;3221;48.858;10.128;2023-05-29T13:42:36;4.47;;;3.08;;
6376;SDS011;3221;48.858;10.128;2023-05-29T13:45:05;4.70;;;3.38;;
6376;SDS011;3221;48.858;10.128;2023-05-29T13:47:34;5.75;;;3.75;;
6376;SDS011;3221;48.858;10.128;2023-05-29T13:50:01;6.43;;;3.67;;
6376;SDS011;3221;48.858;10.128;2023-05-29T13:52:28;4.68;;;3.55;;
6376;SDS011;3221;48.858;10.128;2023-05-29T13:54:55;4.95;;;3.38;;
6376;SDS011;3221;48.858;10.128;2023-05-29T13:57:25;4.55;;;3.70;;
6376;SDS011;3221;48.858;10.128;2023-05-29T13:59:52;5.70;;;3.65;;
6376;SDS011;3221;48.858;10.128;2023-05-29T14:02:19;4.28;;;3.58;;
6376;SDS011;3221;48.858;10.128;2023-05-29T14:04:48;3.97;;;3.53;;
6376;SDS011;3221;48.858;10.128;2023-05-29T14:07:15;5.50;;;4.10;;
6376;SDS011;3221;48.858;10.128;2023-05-29T14:09:41;5.10;;;3.60;;
6376;SDS011;3221;48.858;10.128;2023-05-29T14:12:08;5.07;;;3.50;;
6376;SDS011;3221;48.858;10.128;2023-05-29T14:14:35;8.13;;;3.72;;
6376;SDS011;3221;48.858;10.128;2023-05-29T14:17:03;4.40;;;3.70;;
6376;SDS011;3221;48.858;10.128;2023-05-29T14:19:31;4.10;;;3.70;;
6376;SDS011;3221;48.858;10.128;2023-05-29T14:21:58;5.28;;;3.90;;
6376;SDS011;3221;48.858;10.128;2023-05-29T14:24:27;6.07;;;4.20;;
6376;SDS011;3221;48.858;10.128;2023-05-29T14:26:54;5.03;;;3.75;;
6376;SDS011;3221;48.858;10.128;2023-05-29T14:29:21;5.10;;;3.75;;
6376;SDS011;3221;48.858;10.128;2023-05-29T14:31:47;4.60;;;3.75;;
6376;SDS011;3221;48.858;10.128;2023-05-29T14:34:14;5.15;;;3.72;;
6376;SDS011;3221;48.858;10.128;2023-05-29T14:36:41;7.10;;;3.85;;
6376;SDS011;3221;48.858;10.128;2023-05-29T14:39:11;3.80;;;3.42;;
6376;SDS011;3221;48.858;10.128;2023-05-29T14:41:38;6.15;;;3.60;;
6376;SDS011;3221;48.858;10.128;2023-05-29T14:44:05;5.22;;;3.65;;
6376;SDS011;3221;48.858;10.128;2023-05-29T14:46:32;4.68;;;3.67;;
6376;SDS011;3221;48.858;10.128;2023-05-29T14:49:00;5.35;;;3.78;;
6376;SDS011;3221;48.858;10.128;2023-05-29T14:51:27;5.25;;;3.90;;
6376;SDS011;3221;48.858;10.128;2023-05-29T14:53:54;4.68;;;3.70;;
6376;SDS011;3221;48.858;10.128;2023-05-29T14:56:21;4.97;;;3.38;;
6376;SDS011;3221;48.858;10.128;2023-05-29T14:58:48;12.07;;;4.20;;
6376;SDS011;3221;48.858;10.128;2023-05-29T15:01:15;6.70;;;3.55;;
6376;SDS011;3221;48.858;10.128;2023-05-29T15:03:43;5.93;;;3.65;;
6376;SDS011;3221;48.858;10.128;2023-05-29T15:06:10;4.90;;;3.45;;
6376;SDS011;3221;48.858;10.128;2023-05-29T15:08:41;4.03;;;3.50;;
6376;SDS011;3221;48.858;10.128;2023-05-29T15:11:10;4.97;;;3.92;;
6376;SDS011;3221;48.858;10.128;2023-05-29T15:13:39;3.97;;;3.35;;
6376;SDS011;3221;48.858;10.128;2023-05-29T15:16:06;4.97;;;3.40;;
6376;SDS011;3221;48.858;10.128;2023-05-29T15:18:34;5.43;;;3.50;;
6376;SDS011;3221;48.858;10.128;2023-05-29T15:21:01;5.30;;;3.72;;
6376;SDS011;3221;48.858;10.128;2023-05-29T15:23:29;4.85;;;3.83;;
6376;SDS011;3221;48.858;10.128;2023-05-29T15:25:56;5.07;;;3.47;;
6376;SDS011;3221;48.858;10.128;2023-05-29T15:28:24;4.75;;;3.45;;
6376;SDS011;3221;48.858;10.128;2023-05-29T15:30:51;4.25;;;3.25;;
6376;SDS011;3221;48.858;10.128;2023-05-29T15:33:18;7.05;;;4.28;;
6376;SDS011;3221;48.858;10.128;2023-05-29T15:35:45;3.90;;;3.28;;
6376;SDS011;3221;48.858;10.128;2023-05-29T15:38:13;4.63;;;3.47;;